Time;durP1;ratioP1;P1;durP2;ratioP2;P2;SDS_P1;SDS_P2;PMS_P1;PMS_P2;Temp;Humidity;BMP_temperature;BMP_pressure;BME280_temperature;BME280_humidity;BME280_pressure;Samples;Min_cycle;Max_cycle;Signal;HPM_P1;HPM_P2
2023/06/05 00:01:50;;;;;;;2.95;1.80;;;16.10;1.00;;;;;;7350153;19;20798;-67
2023/06/05 00:04:20;;;;;;;6.47;2.00;;;16.10;1.00;;;;;;7351494;19;20030;-67
2023/06/05 00:06:51;;;;;;;4.32;2.20;;;16.00;1.00;;;;;;7350482;19;20015;-67
2023/06/05 00:09:24;;;;;;;5.65;2.30;;;16.10;1.00;;;;;;7371070;19;20018;-67
2023/06/05 00:11:54;;;;;;;3.05;1.88;;;16.10;1.00;;;;;;7349528;19;20018;-67
2023/06/05 00:14:24;;;;;;;2.92;2.00;;;15.90;1.00;;;;;;7349085;19;20389;-67
2023/06/05 00:16:56;;;;;;;4.32;1.92;;;15.90;1.00;;;;;;7350121;19;20011;-67
2023/06/05 00:19:26;;;;;;;3.05;2.20;;;15.80;1.00;;;;;;7349755;19;20043;-67
2023/06/05 00:21:57;;;;;;;3.65;1.70;;;15.70;1.00;;;;;;7348566;19;20044;-67
2023/06/05 00:24:29;;;;;;;5.10;2.47;;;15.80;1.00;;;;;;7372017;19;20022;-67
2023/06/05 00:27:00;;;;;;;3.30;2.00;;;15.70;1.00;;;;;;7357082;19;20015;-68
2023/06/05 00:29:30;;;;;;;4.78;2.70;;;15.60;1.00;;;;;;7357958;19;20014;-67
2023/06/05 00:32:00;;;;;;;3.83;2.30;;;15.60;1.00;;;;;;7356135;19;20015;-68
2023/06/05 00:34:30;;;;;;;5.13;2.75;;;15.60;1.00;;;;;;7355921;19;20018;-67
2023/06/05 00:37:00;;;;;;;4.13;2.17;;;15.50;1.00;;;;;;7358957;19;20013;-67
2023/06/05 00:39:32;;;;;;;5.53;2.22;;;15.50;1.00;;;;;;7359892;19;20029;-68
2023/06/05 00:42:02;;;;;;;6.30;2.50;;;15.50;1.00;;;;;;7379145;19;20039;-67
2023/06/05 00:44:32;;;;;;;5.65;2.30;;;15.50;1.00;;;;;;7355726;19;20019;-67
2023/06/05 00:47:02;;;;;;;3.40;2.22;;;15.40;1.00;;;;;;7356582;19;20392;-68
2023/06/05 00:49:33;;;;;;;3.63;2.30;;;15.30;1.00;;;;;;7356383;19;20036;-68
2023/06/05 00:52:03;;;;;;;7.03;2.28;;;15.30;1.00;;;;;;7355801;19;20550;-67
2023/06/05 00:54:35;;;;;;;3.55;2.50;;;15.20;1.00;;;;;;7355350;19;20010;-67
2023/06/05 00:57:06;;;;;;;3.63;2.10;;;15.20;1.00;;;;;;7377656;19;20018;-68
2023/06/05 00:59:40;;;;;;;4.65;2.45;;;15.20;1.00;;;;;;7354923;19;20384;-67
2023/06/05 01:02:10;;;;;;;4.70;2.50;;;15.20;1.00;;;;;;7356116;19;20007;-68
2023/06/05 01:04:40;;;;;;;4.07;2.15;;;15.20;1.00;;;;;;7355799;19;20085;-67
2023/06/05 01:07:10;;;;;;;4.85;2.40;;;15.10;1.00;;;;;;7355976;19;20011;-67
2023/06/05 01:09:44;;;;;;;5.13;2.28;;;15.10;1.00;;;;;;7354373;19;20025;-67
2023/06/05 01:12:23;;;;;;;5.13;2.10;;;15.10;1.00;;;;;;7377384;19;20352;-67
2023/06/05 01:14:58;;;;;;;4.13;2.35;;;15.10;1.00;;;;;;7354719;19;20029;-68
2023/06/05 01:17:32;;;;;;;3.13;2.25;;;15.00;1.00;;;;;;7354821;19;20048;-67
2023/06/05 01:20:09;;;;;;;3.03;2.00;;;14.90;1.00;;;;;;7353623;19;20014;-67
2023/06/05 01:22:39;;;;;;;3.75;1.98;;;14.80;1.00;;;;;;7355478;19;20014;-67
2023/06/05 01:25:12;;;;;;;2.75;2.08;;;14.80;1.00;;;;;;7353265;19;20018;-67
2023/06/05 01:27:48;;;;;;;13.73;2.17;;;14.80;1.00;;;;;;7355311;19;20015;-67
2023/06/05 01:30:28;;;;;;;5.20;2.20;;;14.70;1.00;;;;;;7378409;19;20043;-67
2023/06/05 01:33:02;;;;;;;4.50;2.03;;;14.80;1.00;;;;;;7356149;19;20010;-67
2023/06/05 01:35:35;;;;;;;4.93;2.42;;;14.70;1.00;;;;;;7356657;19;20043;-67
2023/06/05 01:38:09;;;;;;;5.18;2.78;;;14.60;1.00;;;;;;7357375;19;20015;-67
2023/06/05 01:40:42;;;;;;;5.67;2.60;;;14.70;1.00;;;;;;7356475;19;20035;-67
2023/06/05 01:43:13;;;;;;;4.43;2.70;;;14.70;1.00;;;;;;7354640;19;20039;-67
2023/06/05 01:45:44;;;;;;;9.85;2.40;;;14.60;1.00;;;;;;7353100;19;20035;-67
2023/06/05 01:48:15;;;;;;;4.07;2.13;;;14.60;1.00;;;;;;7375401;19;20055;-67
2023/06/05 01:50:45;;;;;;;3.92;2.10;;;14.50;1.00;;;;;;7352387;19;20018;-67
2023/06/05 01:53:16;;;;;;;3.75;2.30;;;14.50;1.00;;;;;;7354176;19;20033;-67
2023/06/05 01:55:52;;;;;;;4.03;2.17;;;14.50;1.00;;;;;;7354719;19;20014;-67
2023/06/05 01:58:23;;;;;;;3.88;2.40;;;14.50;1.00;;;;;;7353721;19;20482;-67
2023/06/05 02:00:56;;;;;;;5.20;2.40;;;14.40;1.00;;;;;;7352715;19;20387;-67
2023/06/05 02:03:27;;;;;;;3.80;2.13;;;14.40;1.00;;;;;;7376946;19;20022;-67
2023/06/05 02:05:57;;;;;;;2.75;2.10;;;14.40;1.00;;;;;;7356287;19;20074;-67
2023/06/05 02:08:28;;;;;;;3.08;2.25;;;14.40;1.00;;;;;;7352827;19;20015;-67
2023/06/05 02:11:02;;;;;;;3.88;2.47;;;14.30;1.00;;;;;;7352914;19;20040;-67
2023/06/05 02:13:33;;;;;;;4.05;1.98;;;14.30;1.00;;;;;;7353663;19;20011;-67
2023/06/05 02:16:02;;;;;;;4.70;1.90;;;14.20;1.00;;;;;;7353831;19;20011;-66
2023/06/05 02:18:36;;;;;;;3.55;2.33;;;14.20;1.00;;;;;;7352737;19;20014;-67
2023/06/05 02:21:07;;;;;;;9.43;2.50;;;14.20;1.00;;;;;;7373296;19;20025;-67
2023/06/05 02:23:38;;;;;;;4.38;2.30;;;14.20;1.00;;;;;;7352112;19;20496;-67
2023/06/05 02:26:10;;;;;;;5.18;2.42;;;14.20;1.00;;;;;;7352949;19;20025;-67
2023/06/05 02:28:40;;;;;;;5.18;2.53;;;14.20;1.00;;;;;;7353098;19;20022;-67
2023/06/05 02:31:16;;;;;;;7.18;2.50;;;14.20;1.00;;;;;;7354793;19;20014;-67
2023/06/05 02:33:46;;;;;;;10.13;4.40;;;14.20;1.00;;;;;;7355612;19;20091;-67
2023/06/05 02:36:16;;;;;;;10.48;4.03;;;14.00;1.00;;;;;;7378797;19;20014;-67
2023/06/05 02:38:49;;;;;;;10.15;3.70;;;13.90;1.00;;;;;;7352363;19;20101;-67
2023/06/05 02:41:22;;;;;;;4.45;2.78;;;13.80;1.00;;;;;;7350872;19;20400;-67
2023/06/05 02:43:53;;;;;;;3.30;2.42;;;13.90;1.00;;;;;;7352168;19;20014;-67
2023/06/05 02:46:24;;;;;;;4.55;2.30;;;14.00;1.00;;;;;;7352875;19;20111;-67
2023/06/05 02:48:54;;;;;;;4.40;2.47;;;13.90;1.00;;;;;;7351510;19;20022;-67
2023/06/05 02:51:24;;;;;;;5.90;2.65;;;13.90;1.00;;;;;;7372096;19;20086;-67
2023/06/05 02:53:54;;;;;;;3.88;2.38;;;13.90;1.00;;;;;;7351845;19;20498;-67
2023/06/05 02:56:27;;;;;;;5.95;2.60;;;13.90;1.00;;;;;;7351892;19;20014;-67
2023/06/05 02:58:58;;;;;;;6.05;2.50;;;13.80;1.00;;;;;;7351667;19;20758;-67
2023/06/05 03:01:34;;;;;;;2.95;1.92;;;13.80;1.00;;;;;;7350278;19;20007;-67
2023/06/05 03:04:06;;;;;;;3.47;2.05;;;13.80;1.00;;;;;;7352333;19;20395;-67
2023/06/05 03:06:37;;;;;;;3.65;2.33;;;13.70;1.00;;;;;;7355344;19;20010;-67
2023/06/05 03:09:07;;;;;;;3.60;2.03;;;13.70;1.00;;;;;;7373134;19;20034;-67
2023/06/05 03:11:40;;;;;;;8.05;2.60;;;13.80;1.00;;;;;;7350880;19;20039;-67
2023/06/05 03:14:10;;;;;;;2.97;2.28;;;13.70;1.00;;;;;;7351364;19;20019;-67
2023/06/05 03:16:43;;;;;;;3.47;2.35;;;13.70;1.00;;;;;;7351520;19;20023;-67
2023/06/05 03:19:13;;;;;;;4.80;2.20;;;13.60;1.00;;;;;;7351025;19;20011;-67
2023/06/05 03:21:43;;;;;;;3.63;2.33;;;13.70;1.00;;;;;;7351187;19;20402;-66
2023/06/05 03:24:15;;;;;;;3.80;2.20;;;13.60;1.00;;;;;;7372824;19;20362;-67
2023/06/05 03:26:48;;;;;;;10.07;3.03;;;13.60;1.00;;;;;;7353921;19;20371;-67
2023/06/05 03:29:18;;;;;;;4.05;2.10;;;13.60;1.00;;;;;;7351476;19;20055;-67
2023/06/05 03:31:48;;;;;;;4.43;2.80;;;13.60;1.00;;;;;;7352821;19;20011;-67
2023/06/05 03:34:18;;;;;;;6.13;2.97;;;13.60;1.00;;;;;;7349075;19;20011;-67
2023/06/05 03:36:48;;;;;;;3.85;2.42;;;13.60;1.00;;;;;;7351024;19;20368;-67
2023/06/05 03:39:18;;;;;;;5.82;2.78;;;13.60;1.00;;;;;;7371885;19;20490;-67
2023/06/05 03:41:51;;;;;;;4.10;2.55;;;13.80;1.00;;;;;;7349819;19;20337;-67
2023/06/05 03:44:22;;;;;;;3.33;2.58;;;14.50;1.00;;;;;;7349867;19;20015;-67
2023/06/05 03:46:52;;;;;;;5.30;2.40;;;14.90;1.00;;;;;;7350771;19;20392;-67
2023/06/05 03:49:22;;;;;;;10.18;2.47;;;15.10;1.00;;;;;;7350909;19;20692;-67
2023/06/05 03:51:52;;;;;;;5.68;2.75;;;15.50;1.00;;;;;;7351444;19;20367;-67
2023/06/05 03:54:25;;;;;;;3.65;2.42;;;15.90;1.00;;;;;;7371120;19;20011;-67
2023/06/05 03:57:00;;;;;;;4.15;2.50;;;16.10;1.00;;;;;;7350714;19;20011;-67
2023/06/05 03:59:30;;;;;;;2.80;2.40;;;16.50;1.00;;;;;;7351348;19;20922;-67
2023/06/05 04:02:02;;;;;;;5.40;2.35;;;16.70;1.00;;;;;;7357137;19;20018;-67
2023/06/05 04:04:32;;;;;;;5.00;2.28;;;16.50;1.00;;;;;;7359570;19;20027;-67
2023/06/05 04:07:01;;;;;;;9.07;2.60;;;16.90;1.00;;;;;;7357588;19;20014;-67
2023/06/05 04:09:32;;;;;;;6.82;2.53;;;17.50;1.00;;;;;;7356496;19;20584;-67
2023/06/05 04:12:05;;;;;;;5.80;2.72;;;17.70;1.00;;;;;;7378112;19;20645;-67
2023/06/05 04:14:35;;;;;;;5.00;2.65;;;18.10;1.00;;;;;;7356199;19;20018;-67
2023/06/05 04:17:06;;;;;;;3.85;2.28;;;18.30;1.00;;;;;;7357154;19;20043;-67
2023/06/05 04:19:36;;;;;;;6.40;2.40;;;18.30;1.00;;;;;;7358530;19;20078;-66
2023/06/05 04:22:06;;;;;;;4.95;2.63;;;18.60;1.00;;;;;;7359235;19;20034;-68
2023/06/05 04:24:37;;;;;;;4.60;2.38;;;17.70;1.00;;;;;;7360614;19;20536;-68
2023/06/05 04:27:10;;;;;;;5.20;2.20;;;18.60;1.00;;;;;;7380053;19;20097;-68
2023/06/05 04:29:40;;;;;;;6.03;2.20;;;18.10;1.00;;;;;;7357074;19;20019;-67
2023/06/05 04:32:10;;;;;;;4.38;2.40;;;19.00;1.00;;;;;;7356684;19;20086;-68
2023/06/05 04:34:40;;;;;;;3.92;2.42;;;19.50;1.00;;;;;;7356496;19;20011;-68
2023/06/05 04:37:10;;;;;;;5.50;2.47;;;19.30;1.00;;;;;;7357061;19;20014;-67
2023/06/05 04:39:40;;;;;;;3.33;2.10;;;20.20;1.00;;;;;;7355633;19;20026;-68
2023/06/05 04:42:12;;;;;;;4.07;2.40;;;20.00;1.00;;;;;;7378402;19;20022;-68
2023/06/05 04:44:44;;;;;;;;;;;20.10;1.00;;;;;;7355690;19;20554;-68
2023/06/05 04:47:14;;;;;;;5.18;2.45;;;20.40;1.00;;;;;;7354963;19;19960;-68
2023/06/05 04:49:47;;;;;;;3.70;2.42;;;20.20;1.00;;;;;;7354853;19;20042;-68
2023/06/05 04:52:17;;;;;;;9.93;2.70;;;20.30;1.00;;;;;;7356735;19;20403;-68
2023/06/05 04:54:47;;;;;;;3.38;2.30;;;21.40;1.00;;;;;;7355087;19;20015;-68
2023/06/05 04:57:19;;;;;;;5.72;2.30;;;20.80;1.00;;;;;;7377622;19;20021;-67
2023/06/05 04:59:50;;;;;;;3.63;2.30;;;21.20;1.00;;;;;;7353970;19;20093;-67
2023/06/05 05:02:21;;;;;;;6.00;2.72;;;21.10;1.00;;;;;;7355587;19;20038;-67
2023/06/05 05:04:51;;;;;;;5.25;2.60;;;20.00;1.00;;;;;;7356106;19;20414;-67
2023/06/05 05:07:22;;;;;;;4.90;2.42;;;20.00;1.00;;;;;;7355102;19;20631;-67
2023/06/05 05:09:52;;;;;;;5.43;2.08;;;21.20;1.00;;;;;;7379079;19;20405;-66
2023/06/05 05:12:24;;;;;;;5.72;2.30;;;21.90;1.00;;;;;;7358989;19;20018;-67
2023/06/05 05:14:54;;;;;;;3.63;2.50;;;20.60;1.00;;;;;;7355426;19;20055;-67
2023/06/05 05:17:25;;;;;;;7.13;2.50;;;21.00;1.00;;;;;;7357819;19;20010;-67
2023/06/05 05:19:55;;;;;;;4.25;2.30;;;21.90;1.00;;;;;;7357010;19;20082;-67
2023/06/05 05:22:26;;;;;;;3.80;2.15;;;20.90;1.00;;;;;;7379844;19;20010;-67
2023/06/05 05:24:56;;;;;;;5.25;2.50;;;22.10;1.00;;;;;;7354419;19;20018;-67
2023/06/05 05:27:28;;;;;;;4.30;2.03;;;22.50;1.00;;;;;;7356478;19;20044;-67
2023/06/05 05:29:58;;;;;;;3.78;2.38;;;21.90;1.00;;;;;;7353578;19;20015;-67
2023/06/05 05:32:28;;;;;;;4.18;2.58;;;20.30;1.00;;;;;;7355665;19;20023;-68
2023/06/05 05:34:58;;;;;;;5.30;2.22;;;21.30;1.00;;;;;;7354047;19;20024;-68
2023/06/05 05:37:28;;;;;;;7.95;2.38;;;22.10;1.00;;;;;;7375385;19;20183;-67
2023/06/05 05:39:58;;;;;;;10.65;2.60;;;22.40;1.00;;;;;;7352166;19;20014;-67
2023/06/05 05:42:31;;;;;;;5.32;2.45;;;21.50;1.00;;;;;;7354194;19;20103;-67
2023/06/05 05:45:00;;;;;;;3.38;2.20;;;21.80;1.00;;;;;;7354520;19;20829;-68
2023/06/05 05:47:31;;;;;;;4.05;2.33;;;21.40;1.00;;;;;;7355552;19;20525;-67
2023/06/05 05:50:00;;;;;;;5.57;2.20;;;22.10;1.00;;;;;;7353326;19;20022;-67
2023/06/05 05:52:32;;;;;;;4.55;2.42;;;20.50;1.00;;;;;;7374980;19;20018;-67
2023/06/05 05:55:03;;;;;;;3.58;1.98;;;21.10;1.00;;;;;;7352357;19;20010;-67
2023/06/05 05:57:36;;;;;;;4.45;2.35;;;20.60;1.00;;;;;;7353826;19;20518;-67
2023/06/05 06:00:12;;;;;;;4.40;2.20;;;21.10;1.00;;;;;;7352110;19;20046;-67
2023/06/05 06:02:42;;;;;;;5.85;2.35;;;21.10;1.00;;;;;;7353745;19;20096;-67
2023/06/05 06:05:12;;;;;;;4.28;2.22;;;20.60;1.00;;;;;;7353020;19;20010;-67
2023/06/05 06:07:42;;;;;;;4.82;2.30;;;19.50;1.00;;;;;;7352374;19;20022;-67
2023/06/05 06:10:15;;;;;;;4.10;2.33;;;19.00;1.00;;;;;;7372720;19;20487;-67
2023/06/05 06:12:48;;;;;;;5.63;2.88;;;17.80;1.00;;;;;;7353203;19;20010;-67
2023/06/05 06:15:18;;;;;;;8.73;2.67;;;17.60;1.00;;;;;;7352538;19;20011;-66
2023/06/05 06:17:48;;;;;;;5.82;2.50;;;18.20;1.00;;;;;;7355099;19;20018;-67
2023/06/05 06:20:18;;;;;;;8.90;3.03;;;18.30;1.00;;;;;;7357273;19;20119;-67
2023/06/05 06:22:48;;;;;;;5.40;2.33;;;18.70;1.00;;;;;;7355529;19;20022;-67
2023/06/05 06:25:25;;;;;;;7.70;2.60;;;18.70;1.00;;;;;;7374311;19;20010;-69
2023/06/05 06:27:58;;;;;;;4.05;2.28;;;19.20;1.00;;;;;;7354945;19;20018;-66
2023/06/05 06:30:29;;;;;;;3.33;2.30;;;20.00;1.00;;;;;;7353144;19;20034;-67
2023/06/05 06:33:01;;;;;;;5.80;1.92;;;21.20;1.00;;;;;;7352885;19;20081;-67
2023/06/05 06:35:31;;;;;;;4.75;2.80;;;21.30;1.00;;;;;;7351597;19;20017;-67
2023/06/05 06:38:01;;;;;;;3.88;2.25;;;21.60;1.00;;;;;;7352400;19;20027;-67
2023/06/05 06:40:31;;;;;;;5.60;2.50;;;20.90;1.00;;;;;;7371291;19;20546;-67
2023/06/05 06:43:04;;;;;;;3.72;2.60;;;20.00;1.00;;;;;;7350823;19;20035;-67
2023/06/05 06:45:33;;;;;;;3.42;2.38;;;19.80;1.00;;;;;;7350128;19;20057;-68
2023/06/05 06:48:03;;;;;;;3.65;2.47;;;19.80;1.00;;;;;;7350445;19;20078;-67
2023/06/05 06:50:37;;;;;;;4.50;2.20;;;19.60;1.00;;;;;;7351000;19;20015;-67
2023/06/05 06:53:07;;;;;;;4.40;2.35;;;19.10;1.00;;;;;;7352324;19;20077;-67
2023/06/05 06:55:38;;;;;;;3.35;2.13;;;19.00;1.00;;;;;;7372828;19;20022;-68
2023/06/05 06:58:10;;;;;;;5.93;2.42;;;19.80;1.00;;;;;;7351215;19;20073;-68
2023/06/05 07:00:40;;;;;;;4.18;2.03;;;19.80;1.00;;;;;;7349233;19;20021;-67
2023/06/05 07:03:10;;;;;;;6.35;2.60;;;20.10;1.00;;;;;;7350957;19;20014;-67
2023/06/05 07:05:40;;;;;;;24.20;13.35;;;20.00;1.00;;;;;;7350709;19;20025;-67
2023/06/05 07:08:10;;;;;;;4.63;2.80;;;19.90;1.00;;;;;;7351082;19;20015;-67
2023/06/05 07:10:42;;;;;;;12.32;2.60;;;20.30;1.00;;;;;;7361025;19;20365;-68
2023/06/05 07:13:15;;;;;;;5.28;2.88;;;20.40;1.00;;;;;;7372758;19;20063;-67
2023/06/05 07:15:45;;;;;;;6.35;2.33;;;20.40;1.00;;;;;;7352284;19;20006;-68
2023/06/05 07:18:15;;;;;;;5.18;2.20;;;20.40;1.00;;;;;;7353535;19;20126;-68
2023/06/05 07:20:45;;;;;;;5.53;2.70;;;20.60;1.00;;;;;;7349913;19;20041;-68
2023/06/05 07:23:17;;;;;;;10.57;3.08;;;20.70;1.00;;;;;;7354390;19;20046;-69
2023/06/05 07:25:51;;;;;;;4.20;2.40;;;20.30;1.00;;;;;;7351400;19;20640;-68
2023/06/05 07:28:24;;;;;;;6.75;2.80;;;20.50;1.00;;;;;;7371552;19;20489;-68
2023/06/05 07:30:54;;;;;;;6.45;2.72;;;20.90;1.00;;;;;;7347862;19;20047;-68
2023/06/05 07:33:24;;;;;;;6.63;2.85;;;20.60;1.00;;;;;;7350121;19;20588;-68
2023/06/05 07:36:01;;;;;;;5.97;3.17;;;20.60;1.00;;;;;;7358859;19;20533;-68
2023/06/05 07:38:32;;;;;;;4.93;3.03;;;20.90;1.00;;;;;;7356620;19;20018;-68
2023/06/05 07:41:02;;;;;;;5.90;3.00;;;20.90;1.00;;;;;;7355197;19;20052;-68
2023/06/05 07:43:35;;;;;;;6.10;3.40;;;20.90;1.00;;;;;;7379288;19;20969;-68
2023/06/05 07:46:05;;;;;;;6.80;3.00;;;20.90;1.00;;;;;;7357680;19;20380;-68
2023/06/05 07:48:35;;;;;;;7.40;3.45;;;21.20;1.00;;;;;;7356314;19;20018;-68
2023/06/05 07:51:08;;;;;;;8.93;3.95;;;21.40;1.00;;;;;;7355250;19;20022;-68
2023/06/05 07:53:38;;;;;;;7.25;3.40;;;21.50;1.00;;;;;;7356499;19;20097;-67
2023/06/05 07:56:09;;;;;;;4.85;2.75;;;22.00;1.00;;;;;;7357975;19;20042;-68
2023/06/05 07:58:42;;;;;;;5.38;3.17;;;21.80;1.00;;;;;;7378605;19;20399;-67
2023/06/05 08:01:15;;;;;;;6.32;3.55;;;21.30;1.00;;;;;;7353728;19;20375;-67
2023/06/05 08:03:45;;;;;;;5.13;3.13;;;22.10;1.00;;;;;;7357867;19;20011;-67
2023/06/05 08:06:16;;;;;;;5.70;3.13;;;21.20;1.00;;;;;;7357106;19;20017;-67
2023/06/05 08:08:47;;;;;;;6.93;2.92;;;21.40;1.00;;;;;;7356125;19;20552;-67
2023/06/05 08:11:17;;;;;;;7.70;3.30;;;21.40;1.00;;;;;;7355717;19;20010;-67
2023/06/05 08:13:49;;;;;;;8.57;3.20;;;21.10;1.00;;;;;;7359443;19;20017;-68
2023/06/05 08:16:19;;;;;;;7.00;3.05;;;21.10;1.00;;;;;;7378187;19;20043;-68
2023/06/05 08:18:50;;;;;;;6.60;3.20;;;21.40;1.00;;;;;;7358888;19;20022;-68
2023/06/05 08:21:20;;;;;;;5.47;3.13;;;21.40;1.00;;;;;;7356615;19;20035;-67
2023/06/05 08:23:50;;;;;;;5.13;3.28;;;21.30;1.00;;;;;;7356068;19;20018;-68
2023/06/05 08:26:21;;;;;;;8.20;3.70;;;21.00;1.00;;;;;;7355720;19;20014;-67
2023/06/05 08:28:54;;;;;;;5.40;3.40;;;21.50;1.00;;;;;;7355228;19;20344;-68
2023/06/05 08:31:24;;;;;;;8.32;3.40;;;21.30;1.00;;;;;;7373773;19;20478;-68
2023/06/05 08:33:54;;;;;;;8.63;3.38;;;21.30;1.00;;;;;;7355215;19;20014;-68
2023/06/05 08:36:24;;;;;;;7.75;3.10;;;21.20;1.00;;;;;;7356096;19;20015;-68
2023/06/05 08:38:54;;;;;;;9.45;3.38;;;21.40;1.00;;;;;;7355875;19;20514;-68
2023/06/05 08:41:25;;;;;;;8.95;3.53;;;22.00;1.00;;;;;;7353549;19;20039;-68
2023/06/05 08:43:58;;;;;;;8.38;3.63;;;22.20;1.00;;;;;;7355735;19;20022;-68
2023/06/05 08:46:31;;;;;;;16.58;4.15;;;22.00;1.00;;;;;;7375836;19;20014;-68
2023/06/05 08:49:10;;;;;;;5.97;3.70;;;22.10;1.00;;;;;;7354483;19;20011;-68
2023/06/05 08:51:43;;;;;;;5.88;3.33;;;21.60;1.00;;;;;;7354276;19;20049;-68
2023/06/05 08:54:15;;;;;;;6.82;3.60;;;22.50;1.00;;;;;;7355014;19;20014;-68
2023/06/05 08:56:45;;;;;;;4.75;3.45;;;22.50;1.00;;;;;;7356043;19;20014;-68
2023/06/05 08:59:20;;;;;;;9.23;3.72;;;22.30;1.00;;;;;;7355468;19;20357;-68
2023/06/05 09:01:50;;;;;;;9.20;3.45;;;22.80;1.00;;;;;;7354647;19;20026;-68
2023/06/05 09:04:21;;;;;;;6.45;3.53;;;23.10;1.00;;;;;;7377066;19;20014;-68
2023/06/05 09:06:53;;;;;;;10.60;3.83;;;22.70;1.00;;;;;;7354995;19;20014;-68
2023/06/05 09:09:25;;;;;;;6.70;3.78;;;22.30;1.00;;;;;;7357300;19;20031;-68
2023/06/05 09:12:05;;;;;;;7.75;3.10;;;22.40;1.00;;;;;;7354451;19;20022;-68
2023/06/05 09:14:38;;;;;;;8.52;4.20;;;22.90;1.00;;;;;;7354469;19;20778;-68
2023/06/05 09:17:14;;;;;;;5.72;4.40;;;22.60;1.00;;;;;;7355230;19;20018;-68
2023/06/05 09:19:47;;;;;;;6.05;4.50;;;22.60;1.00;;;;;;7356575;19;20045;-68
2023/06/05 09:22:17;;;;;;;7.55;4.20;;;22.80;1.00;;;;;;7378823;19;20502;-68
2023/06/05 09:25:01;;;;;;;7.47;4.32;;;22.90;1.00;;;;;;7353675;19;20010;-68
2023/06/05 09:27:31;;;;;;;7.38;4.40;;;22.80;1.00;;;;;;7353687;19;20485;-69
2023/06/05 09:30:08;;;;;;;6.55;4.57;;;23.10;1.00;;;;;;7352296;19;20467;-68
2023/06/05 09:32:39;;;;;;;4.88;4.22;;;22.70;1.00;;;;;;7354015;19;20028;-68
2023/06/05 09:35:11;;;;;;;5.95;4.18;;;22.80;1.00;;;;;;7353094;19;20015;-69
2023/06/05 09:37:45;;;;;;;10.20;4.57;;;22.80;1.00;;;;;;7363258;19;20018;-68
2023/06/05 09:40:16;;;;;;;7.43;4.72;;;23.10;1.00;;;;;;7373338;19;20015;-68
2023/06/05 09:42:46;;;;;;;7.80;4.30;;;23.40;1.00;;;;;;7353359;19;20018;-68
2023/06/05 09:45:20;;;;;;;18.02;4.88;;;23.30;1.00;;;;;;7353046;19;20680;-68
2023/06/05 09:47:50;;;;;;;7.20;4.20;;;23.30;1.00;;;;;;7354012;19;20015;-68
2023/06/05 09:50:24;;;;;;;4.57;4.07;;;23.30;1.00;;;;;;7352321;19;20011;-68
2023/06/05 09:52:56;;;;;;;8.23;3.97;;;23.80;1.00;;;;;;7353216;19;20090;-68
2023/06/05 09:55:28;;;;;;;5.38;4.10;;;23.50;1.00;;;;;;7373831;19;20332;-68
2023/06/05 09:58:02;;;;;;;4.30;3.83;;;23.60;1.00;;;;;;7350660;19;20070;-68
2023/06/05 10:00:36;;;;;;;7.00;4.13;;;23.90;1.00;;;;;;7350771;19;20238;-68
2023/06/05 10:03:10;;;;;;;6.63;3.95;;;23.50;1.00;;;;;;7353487;19;20098;-68
2023/06/05 10:05:42;;;;;;;9.48;4.32;;;23.30;1.00;;;;;;7356168;19;20540;-68
2023/06/05 10:08:14;;;;;;;10.13;3.72;;;23.30;1.00;;;;;;7353142;19;20455;-68
2023/06/05 10:10:44;;;;;;;7.55;3.72;;;23.00;1.00;;;;;;7350921;19;20358;-68
2023/06/05 10:13:15;;;;;;;5.55;3.88;;;23.30;1.00;;;;;;7375259;19;20101;-68
2023/06/05 10:15:53;;;;;;;6.20;3.45;;;23.70;1.00;;;;;;7352661;19;20487;-68
2023/06/05 10:18:23;;;;;;;6.80;4.00;;;23.60;1.00;;;;;;7354275;19;20015;-68
2023/06/05 10:20:55;;;;;;;6.25;3.50;;;24.00;1.00;;;;;;7352675;19;20581;-68
2023/06/05 10:23:26;;;;;;;6.90;3.60;;;24.40;1.00;;;;;;7351985;19;20018;-68
2023/06/05 10:25:58;;;;;;;5.38;3.20;;;24.70;1.00;;;;;;7353111;19;20126;-68
2023/06/05 10:28:44;;;;;;;5.30;2.95;;;24.80;1.00;;;;;;7373438;19;20068;-67
2023/06/05 10:31:28;;;;;;;5.35;2.92;;;24.40;1.00;;;;;;7349748;19;20349;-68
2023/06/05 10:34:09;;;;;;;4.07;2.60;;;24.50;1.00;;;;;;7351878;19;20043;-68
2023/06/05 10:36:51;;;;;;;5.32;2.88;;;24.50;1.00;;;;;;7352418;19;20542;-67
2023/06/05 10:39:21;;;;;;;4.93;2.65;;;24.60;1.00;;;;;;7351069;19;20734;-68
2023/06/05 10:41:53;;;;;;;4.45;3.00;;;24.40;1.00;;;;;;7352244;19;20651;-68
2023/06/05 10:44:40;;;;;;;4.00;2.63;;;25.10;1.00;;;;;;7351528;19;20023;-68
2023/06/05 10:47:53;;;;;;;5.00;2.65;;;25.00;1.00;;;;;;7352443;19;20022;-67
2023/06/05 10:50:31;;;;;;;5.55;3.00;;;24.90;1.00;;;;;;7350632;19;20010;-68
2023/06/05 10:53:01;;;;;;;9.00;3.13;;;25.00;1.00;;;;;;7352079;19;20535;-68
2023/06/05 10:55:44;;;;;;;4.57;2.80;;;24.90;1.00;;;;;;7371248;19;20014;-68
2023/06/05 10:58:16;;;;;;;5.20;2.70;;;24.80;1.00;;;;;;7351362;19;20474;-68
2023/06/05 11:01:16;;;;;;;4.78;2.70;;;24.90;1.00;;;;;;7352004;19;20083;-68
2023/06/05 11:04:00;;;;;;;3.38;2.75;;;25.10;1.00;;;;;;7348972;19;20019;-68
2023/06/05 11:06:30;;;;;;;5.63;2.72;;;25.30;1.00;;;;;;7351559;19;20014;-68
2023/06/05 11:09:12;;;;;;;4.85;2.80;;;25.40;1.00;;;;;;7350839;19;20015;-67
2023/06/05 11:12:00;;;;;;;3.67;2.47;;;25.40;1.00;;;;;;7350525;19;20014;-70
2023/06/05 11:14:47;;;;;;;3.60;2.65;;;25.30;1.00;;;;;;7350877;19;20006;-68
2023/06/05 11:17:38;;;;;;;6.25;2.95;;;25.70;1.00;;;;;;7350794;19;20014;-70
2023/06/05 11:20:49;;;;;;;3.47;2.70;;;26.30;1.00;;;;;;7348366;19;20112;-67
2023/06/05 11:23:20;;;;;;;4.78;2.72;;;25.50;1.00;;;;;;7350533;19;20010;-69
2023/06/05 11:25:51;;;;;;;4.25;2.70;;;25.20;1.00;;;;;;7350402;19;20534;-68
2023/06/05 11:28:39;;;;;;;5.10;2.42;;;25.40;1.00;;;;;;7372384;19;20359;-67
2023/06/05 11:31:09;;;;;;;4.93;2.85;;;24.60;1.00;;;;;;7348591;19;20010;-67
2023/06/05 11:33:40;;;;;;;4.32;2.88;;;24.70;1.00;;;;;;7349701;19;20019;-68
2023/06/05 11:36:12;;;;;;;4.65;2.90;;;25.20;1.00;;;;;;7351088;19;20538;-68
2023/06/05 11:38:55;;;;;;;3.83;2.72;;;25.60;1.00;;;;;;7350662;19;20363;-68
2023/06/05 11:41:27;;;;;;;5.57;3.15;;;25.50;1.00;;;;;;7349292;19;20013;-67
2023/06/05 11:43:57;;;;;;;5.40;2.85;;;25.50;1.00;;;;;;7349868;19;20022;-68
2023/06/05 11:46:39;;;;;;;5.93;2.65;;;25.10;1.00;;;;;;7372077;19;20039;-68
2023/06/05 11:49:12;;;;;;;7.65;2.85;;;25.00;1.00;;;;;;7349506;19;20014;-69
2023/06/05 11:51:45;;;;;;;3.97;3.05;;;25.50;1.00;;;;;;7348551;19;20050;-68
2023/06/05 11:54:26;;;;;;;5.85;3.05;;;24.90;1.00;;;;;;7349790;19;20710;-68
2023/06/05 11:57:08;;;;;;;6.25;3.42;;;25.10;1.00;;;;;;7352479;19;20317;-68
2023/06/05 11:59:38;;;;;;;4.00;3.15;;;25.10;1.00;;;;;;7351681;19;20364;-68
2023/06/05 12:02:08;;;;;;;6.00;3.00;;;24.80;1.00;;;;;;7350254;19;20080;-68
2023/06/05 12:04:42;;;;;;;7.43;3.25;;;24.50;1.00;;;;;;7370737;19;20039;-68
2023/06/05 12:07:15;;;;;;;6.10;3.17;;;25.00;1.00;;;;;;7349585;19;20022;-68
2023/06/05 12:09:53;;;;;;;10.43;3.20;;;25.10;1.00;;;;;;7347294;19;20019;-68
2023/06/05 12:12:23;;;;;;;6.38;3.08;;;25.60;1.00;;;;;;7347163;19;20040;-68
2023/06/05 12:14:54;;;;;;;4.55;2.95;;;25.30;1.00;;;;;;7347772;19;20016;-68
2023/06/05 12:17:25;;;;;;;4.30;3.20;;;25.40;1.00;;;;;;7332186;19;20411;-68
2023/06/05 12:19:59;;;;;;;7.53;3.03;;;25.50;1.00;;;;;;7351838;19;20045;-68
2023/06/05 12:22:36;;;;;;;3.10;2.63;;;25.70;1.00;;;;;;7381097;19;20082;-68
2023/06/05 12:25:19;;;;;;;5.03;3.08;;;26.20;1.00;;;;;;7353675;19;20045;-68
2023/06/05 12:27:52;;;;;;;7.35;2.80;;;25.90;1.00;;;;;;7353978;19;20732;-68
2023/06/05 12:30:23;;;;;;;3.90;2.78;;;25.30;1.00;;;;;;7352435;19;20022;-68
2023/06/05 12:32:53;;;;;;;5.95;3.03;;;25.10;1.00;;;;;;7355799;19;20011;-68
2023/06/05 12:35:24;;;;;;;4.70;3.28;;;24.90;1.00;;;;;;7355604;19;20061;-68
2023/06/05 12:38:03;;;;;;;4.70;2.97;;;25.10;1.00;;;;;;7355890;19;20026;-68
2023/06/05 12:40:33;;;;;;;5.78;3.08;;;25.70;1.00;;;;;;7375704;19;20018;-68
2023/06/05 12:43:18;;;;;;;5.68;2.80;;;25.40;1.00;;;;;;7336182;19;20047;-68
2023/06/05 12:45:49;;;;;;;3.72;2.90;;;25.50;1.00;;;;;;7347097;19;20011;-68
2023/06/05 12:48:20;;;;;;;4.97;3.25;;;25.70;1.00;;;;;;7353063;19;20538;-68
2023/06/05 12:50:51;;;;;;;4.22;3.33;;;25.50;1.00;;;;;;7355759;19;20019;-68
2023/06/05 12:53:25;;;;;;;5.47;3.45;;;26.00;1.00;;;;;;7349505;19;20018;-68
2023/06/05 12:55:55;;;;;;;5.25;2.85;;;26.10;1.00;;;;;;7352304;19;20769;-68
2023/06/05 12:58:25;;;;;;;5.28;3.15;;;26.20;1.00;;;;;;7372415;19;20576;-68
2023/06/05 13:00:55;;;;;;;5.35;3.33;;;26.90;1.00;;;;;;7348863;19;20036;-68
2023/06/05 13:03:25;;;;;;;4.72;3.22;;;26.70;1.00;;;;;;7351849;19;20019;-68
2023/06/05 13:05:55;;;;;;;6.28;3.05;;;26.30;1.00;;;;;;7356218;19;20466;-68
2023/06/05 13:08:28;;;;;;;5.35;3.20;;;26.30;1.00;;;;;;7350954;19;20028;-68
2023/06/05 13:10:58;;;;;;;8.07;3.50;;;25.90;1.00;;;;;;7352162;19;20085;-68
2023/06/05 13:13:28;;;;;;;5.40;2.92;;;25.40;1.00;;;;;;7374708;19;20048;-68
2023/06/05 13:15:58;;;;;;;7.22;3.67;;;25.20;1.00;;;;;;7351789;19;20023;-68
2023/06/05 13:18:29;;;;;;;3.47;3.00;;;25.10;1.00;;;;;;7348875;19;20549;-67
2023/06/05 13:20:59;;;;;;;3.95;3.40;;;25.50;1.00;;;;;;7353786;19;20354;-68
2023/06/05 13:23:32;;;;;;;5.93;3.33;;;25.30;1.00;;;;;;7352540;19;20011;-67
2023/06/05 13:26:02;;;;;;;5.70;3.30;;;25.20;1.00;;;;;;7356424;19;20469;-68